Time;durP1;ratioP1;P1;durP2;ratioP2;P2;SDS_P1;SDS_P2;PMS_P1;PMS_P2;Temp;Humidity;BMP_temperature;BMP_pressure;BME280_temperature;BME280_humidity;BME280_pressure;Samples;Min_cycle;Max_cycle;Signal;HPM_P1;HPM_P2
2023/03/02 19:45:35;;;;;;;7.75;7.15;;;;;;;5.02;75.77;95096.44;5116723;28;20241;-70
2023/03/02 19:48:02;;;;;;;6.85;6.22;;;;;;;5.08;75.97;95092.41;5117573;28;20211;-70
2023/03/02 19:50:29;;;;;;;7.00;6.30;;;;;;;5.10;75.35;95098.38;5099426;28;20199;-70
2023/03/02 19:52:59;;;;;;;7.63;7.03;;;;;;;5.12;75.46;95093.41;5117525;28;20196;-70
2023/03/02 19:55:26;;;;;;;8.07;7.28;;;;;;;5.15;75.31;95087.28;5098801;28;20203;-70
2023/03/02 19:57:58;;;;;;;8.07;7.32;;;;;;;5.15;75.07;95086.47;5099189;28;20192;-70
2023/03/02 20:00:27;;;;;;;6.85;6.25;;;;;;;5.16;74.99;95088.91;5117265;28;20264;-70
2023/03/02 20:02:55;;;;;;;7.97;7.28;;;;;;;5.19;75.01;95093.75;5098676;28;20206;-70
2023/03/02 20:05:22;;;;;;;7.30;6.53;;;;;;;5.23;74.88;95096.66;5098655;28;20219;-70
2023/03/02 20:07:49;;;;;;;7.25;6.60;;;;;;;5.20;74.73;95095.34;5099305;28;20199;-70
2023/03/02 20:10:26;;;;;;;7.25;6.63;;;;;;;5.24;74.64;95095.53;5099247;28;20487;-70
2023/03/02 20:12:54;;;;;;;7.82;7.13;;;;;;;5.25;74.65;95094.38;5098812;28;20248;-70
2023/03/02 20:15:21;;;;;;;7.57;6.95;;;;;;;5.25;74.45;95089.72;5098386;28;20631;-70
2023/03/02 20:17:48;;;;;;;8.45;7.68;;;;;;;5.23;74.63;95085.72;5116341;28;20180;-70
2023/03/02 20:20:27;;;;;;;7.68;6.97;;;;;;;5.21;74.68;95086.00;5098689;28;20596;-70
2023/03/02 20:22:54;;;;;;;8.00;7.30;;;;;;;5.21;74.67;95086.00;5098830;28;20256;-70
2023/03/02 20:25:21;;;;;;;7.28;6.68;;;;;;;5.18;74.48;95094.84;5115864;28;20207;-70
2023/03/02 20:27:50;;;;;;;7.45;6.85;;;;;;;5.26;74.34;95087.78;5099134;28;20207;-70
2023/03/02 20:30:20;;;;;;;8.18;7.43;;;;;;;5.22;74.70;95089.56;5116578;28;20213;-70
2023/03/02 20:32:46;;;;;;;7.05;6.35;;;;;;;5.18;74.74;95088.56;5098808;28;20203;-70
2023/03/02 20:35:13;;;;;;;7.70;7.00;;;;;;;5.23;74.75;95074.78;5098431;28;20194;-70
2023/03/02 20:37:42;;;;;;;6.93;6.32;;;;;;;5.20;74.44;95080.88;5098552;28;20294;-70
2023/03/02 20:40:09;;;;;;;6.70;6.10;;;;;;;5.21;74.59;95079.75;5116021;28;20183;-70
2023/03/02 20:42:36;;;;;;;7.55;6.78;;;;;;;5.25;74.56;95077.97;5098176;28;20198;-70
2023/03/02 20:45:28;;;;;;;6.63;6.03;;;;;;;5.25;74.04;95073.31;5113231;27;20224;-70
2023/03/02 20:47:56;;;;;;;6.38;5.88;;;;;;;5.30;74.18;95075.09;5098479;28;20268;-70
2023/03/02 20:50:27;;;;;;;6.28;5.78;;;;;;;5.30;74.23;95070.44;5098262;28;20203;-70
2023/03/02 21:52:08;;;;;;;4.30;3.90;;;;;;;4.81;74.30;95041.53;5095448;28;20227;-70
2023/03/02 21:54:35;;;;;;;4.70;4.30;;;;;;;4.81;74.22;95034.13;5115387;28;20188;-70
2023/03/02 21:57:02;;;;;;;5.13;4.65;;;;;;;4.85;74.48;95034.31;5115422;28;20191;-70
2023/03/02 21:59:29;;;;;;;7.05;6.38;;;;;;;4.90;74.20;95027.88;5115133;28;20196;-70
2023/03/02 22:01:58;;;;;;;4.80;4.40;;;;;;;4.80;74.15;95029.00;5114956;28;20619;-70
2023/03/02 22:04:53;;;;;;;3.97;3.67;;;;;;;4.75;74.47;95027.19;5115360;28;20219;-70
2023/03/02 22:07:20;;;;;;;5.15;3.88;;;;;;;4.82;74.10;95024.81;5118167;28;20704;-70
2023/03/02 22:09:46;;;;;;;4.03;3.65;;;;;;;4.82;73.91;95024.00;5101368;28;20195;-70
2023/03/02 22:12:14;;;;;;;4.00;3.70;;;;;;;4.87;74.05;95023.88;5118838;28;20192;-70
2023/03/02 22:14:41;;;;;;;3.80;3.50;;;;;;;4.82;74.22;95015.81;5118861;28;20591;-70
2023/03/02 22:17:17;;;;;;;3.40;3.13;;;;;;;4.68;74.05;95023.31;5119008;28;20194;-70
2023/03/02 22:19:44;;;;;;;3.60;3.30;;;;;;;4.63;74.26;95018.00;5101672;28;20223;-70
2023/03/02 22:22:17;;;;;;;3.63;3.10;;;;;;;4.48;75.06;95020.03;5119089;28;20180;-68
2023/03/02 22:24:46;;;;;;;3.10;2.90;;;;;;;4.47;75.33;95014.91;5100892;28;20597;-69
2023/03/02 22:27:21;;;;;;;3.58;3.28;;;;;;;4.42;75.43;95009.56;5118690;28;20637;-68
2023/03/02 22:29:48;;;;;;;3.13;2.90;;;;;;;4.43;75.52;95009.28;5101427;28;20199;-69
2023/03/02 22:32:18;;;;;;;3.30;3.00;;;;;;;4.38;75.24;95014.06;5100725;28;20203;-69
2023/03/02 22:34:46;;;;;;;3.17;2.92;;;;;;;4.34;75.50;95005.69;5093116;28;20192;-69
2023/03/02 22:37:16;;;;;;;3.15;2.95;;;;;;;4.37;75.44;95001.53;5118296;28;20180;-69
2023/03/02 22:39:43;;;;;;;3.05;2.85;;;;;;;4.34;75.74;95001.03;5100910;28;20260;-69
2023/03/02 22:42:13;;;;;;;3.28;3.08;;;;;;;4.34;75.69;95000.22;5118580;28;20188;-71
2023/03/02 22:44:40;;;;;;;3.65;3.35;;;;;;;4.29;75.60;94992.19;5100696;28;20211;-74
2023/03/02 22:47:14;;;;;;;3.67;3.38;;;;;;;4.25;75.78;94989.28;5118146;28;20277;-71
2023/03/02 22:49:42;;;;;;;3.10;2.90;;;;;;;4.22;76.23;94989.09;5118815;28;20226;-71
2023/03/02 22:52:14;;;;;;;3.40;3.15;;;;;;;4.24;76.38;94997.75;5100096;28;20239;-71
2023/03/02 22:54:41;;;;;;;3.00;2.80;;;;;;;4.23;75.78;94988.78;5100776;28;20198;-71
2023/03/02 22:57:21;;;;;;;2.95;2.75;;;;;;;4.15;76.52;94986.81;5100175;28;20184;-71
2023/03/02 22:59:47;;;;;;;3.20;3.00;;;;;;;4.14;76.62;94985.22;5100566;28;20200;-71
2023/03/02 23:02:21;;;;;;;3.50;3.22;;;;;;;4.22;76.60;94986.38;5118275;28;20188;-71
2023/03/02 23:04:49;;;;;;;3.22;2.90;;;;;;;4.32;76.10;94980.59;5099929;28;20200;-71
2023/03/02 23:07:18;;;;;;;3.10;2.90;;;;;;;4.37;75.35;94985.16;5100229;28;20546;-71
2023/03/02 23:09:45;;;;;;;3.22;3.03;;;;;;;4.36;75.38;94981.63;5117337;28;20196;-71
2023/03/02 23:12:15;;;;;;;3.03;2.83;;;;;;;4.31;75.43;94982.53;5116783;28;20203;-71
2023/03/02 23:14:47;;;;;;;3.47;3.17;;;;;;;4.22;76.06;94978.19;5108573;28;20203;-71
2023/03/02 23:17:15;;;;;;;3.35;3.15;;;;;;;4.12;76.31;94976.53;5116575;28;20644;-71
2023/03/02 23:19:42;;;;;;;3.20;3.00;;;;;;;4.05;76.84;94985.16;5121257;27;20644;-71
2023/03/02 23:22:11;;;;;;;3.20;3.00;;;;;;;4.10;77.10;94974.13;5120744;27;20538;-71
2023/03/02 23:24:38;;;;;;;2.90;2.70;;;;;;;4.15;76.95;94980.56;5120058;27;20233;-71
2023/03/02 23:27:04;;;;;;;3.20;3.00;;;;;;;4.30;76.41;94971.94;5138188;27;20211;-71
2023/03/02 23:29:31;;;;;;;2.83;2.63;;;;;;;4.27;76.27;94967.09;5120189;27;20195;-71
2023/03/02 23:31:58;;;;;;;2.92;2.72;;;;;;;4.22;75.94;94973.53;5120261;27;20194;-71
2023/03/02 23:34:25;;;;;;;3.08;2.88;;;;;;;4.23;76.54;94966.13;5137856;27;20591;-71
2023/03/02 23:36:51;;;;;;;3.17;2.97;;;;;;;4.20;76.43;94972.22;5120017;27;20199;-71
2023/03/02 23:39:19;;;;;;;2.80;2.60;;;;;;;4.24;76.42;94965.81;5137669;27;20198;-71
2023/03/02 23:41:47;;;;;;;2.97;2.78;;;;;;;4.24;76.45;94970.47;5138227;27;20240;-71
2023/03/02 23:44:14;;;;;;;3.08;2.88;;;;;;;4.22;76.42;94968.06;5119883;27;20191;-71
2023/03/02 23:46:40;;;;;;;3.35;3.15;;;;;;;4.24;76.63;94968.53;5119358;27;20219;-71
2023/03/02 23:49:07;;;;;;;3.30;3.10;;;;;;;4.21;76.53;94963.72;5120021;27;20195;-71
2023/03/02 23:51:34;;;;;;;3.20;3.00;;;;;;;4.16;76.27;94961.13;5116105;28;20231;-71
2023/03/02 23:54:00;;;;;;;3.25;3.05;;;;;;;4.26;76.59;94960.03;5117533;28;20210;-71
2023/03/02 23:56:29;;;;;;;3.47;3.28;;;;;;;4.28;76.46;94958.59;5117207;28;20181;-71
2023/03/02 23:58:56;;;;;;;3.35;3.15;;;;;;;4.37;75.83;94955.09;5117152;28;20184;-71
